createdAt,value
2019-05-20T00:01:05.535Z,18.67
2019-05-20T00:04:09.830Z,18.90
2019-05-20T00:07:14.111Z,18.83
2019-05-20T00:10:18.423Z,18.73
2019-05-20T00:13:22.711Z,19.13
2019-05-20T00:16:27.011Z,17.70
2019-05-20T00:19:31.305Z,16.73
2019-05-20T00:22:35.583Z,16.70
2019-05-20T00:25:39.867Z,14.93
2019-05-20T00:28:44.158Z,15.17
2019-05-20T00:31:48.427Z,14.90
2019-05-20T00:34:52.713Z,13.77
2019-05-20T00:37:56.999Z,15.43
2019-05-20T00:41:01.278Z,14.93
2019-05-20T00:44:05.674Z,15.80
2019-05-20T00:47:10.614Z,15.57
2019-05-20T00:50:16.431Z,15.77
2019-05-20T00:53:20.704Z,15.57
2019-05-20T00:56:24.982Z,14.80
2019-05-20T00:59:29.266Z,16.40
2019-05-20T01:02:33.577Z,15.77
2019-05-20T01:05:37.865Z,17.40
2019-05-20T01:08:42.177Z,17.67
2019-05-20T01:11:46.463Z,16.43
2019-05-20T01:14:50.744Z,17.03
2019-05-20T01:17:55.048Z,16.40
2019-05-20T01:21:00.092Z,15.60
2019-05-20T01:24:04.406Z,16.70
2019-05-20T01:27:08.685Z,16.83
2019-05-20T01:30:13.372Z,15.57
2019-05-20T01:33:17.676Z,16.73
2019-05-20T01:36:23.058Z,16.60
2019-05-20T01:39:27.378Z,18.07
2019-05-20T01:42:31.666Z,19.53
2019-05-20T01:45:38.252Z,19.07
2019-05-20T01:48:42.525Z,19.63
2019-05-20T01:51:46.792Z,19.97
2019-05-20T01:54:51.080Z,18.83
2019-05-20T01:57:55.356Z,21.57
2019-05-20T02:00:59.739Z,21.03
2019-05-20T02:04:04.037Z,21.53
2019-05-20T02:07:08.339Z,22.60
2019-05-20T02:10:12.940Z,23.27
2019-05-20T02:13:17.226Z,23.37
2019-05-20T02:16:21.831Z,23.80
2019-05-20T02:19:26.132Z,22.60
2019-05-20T02:22:30.412Z,25.67
2019-05-20T02:25:34.708Z,25.77
2019-05-20T02:28:39.011Z,24.77
2019-05-20T02:31:43.288Z,26.30
2019-05-20T02:34:47.566Z,25.27
2019-05-20T02:37:51.890Z,24.27
2019-05-20T02:40:56.195Z,24.13
2019-05-20T02:44:00.492Z,24.33
2019-05-20T02:47:04.874Z,24.00
2019-05-20T02:50:09.384Z,24.27
2019-05-20T02:53:16.142Z,24.20
2019-05-20T02:56:20.431Z,21.77
2019-05-20T02:59:24.712Z,22.43
2019-05-20T03:02:29.000Z,23.20
2019-05-20T03:05:33.288Z,22.63
2019-05-20T03:08:37.564Z,22.40
2019-05-20T03:11:41.881Z,22.63
2019-05-20T03:14:46.234Z,23.03
2019-05-20T03:17:50.488Z,22.57
2019-05-20T03:20:54.769Z,22.40
2019-05-20T03:23:59.062Z,21.93
2019-05-20T03:27:04.816Z,23.40
2019-05-20T03:30:09.705Z,22.67
2019-05-20T03:33:13.984Z,22.37
2019-05-20T03:36:18.264Z,20.57
2019-05-20T03:39:22.541Z,20.03
2019-05-20T03:42:26.801Z,20.53
2019-05-20T03:45:31.071Z,22.37
2019-05-20T03:48:35.368Z,20.97
2019-05-20T03:51:39.648Z,22.57
2019-05-20T03:54:43.928Z,21.50
2019-05-20T03:57:48.203Z,21.80
2019-05-20T04:00:52.485Z,21.57
2019-05-20T04:03:57.776Z,23.30
2019-05-20T04:07:02.068Z,23.03
2019-05-20T04:10:06.891Z,24.00
2019-05-20T04:13:11.296Z,24.33
2019-05-20T04:16:15.575Z,23.57
2019-05-20T04:19:19.877Z,24.17
2019-05-20T04:22:24.185Z,26.17
2019-05-20T04:25:28.474Z,23.37
2019-05-20T04:28:32.785Z,23.13
2019-05-20T04:31:37.108Z,23.23
2019-05-20T04:34:41.489Z,22.33
2019-05-20T04:37:45.785Z,22.13
2019-05-20T04:40:50.125Z,22.30
2019-05-20T04:43:54.830Z,21.17
2019-05-20T04:46:59.129Z,22.33
2019-05-20T04:50:03.497Z,24.67
2019-05-20T04:53:07.788Z,26.90
2019-05-20T04:56:12.090Z,27.33
2019-05-20T04:59:16.409Z,27.67
2019-05-20T05:02:20.704Z,30.77
2019-05-20T05:05:37.209Z,28.43
2019-05-20T05:08:31.154Z,27.83
2019-05-20T05:11:35.574Z,28.93
2019-05-20T05:14:39.856Z,28.63
2019-05-20T05:17:44.158Z,27.90
2019-05-20T05:20:48.573Z,28.10
2019-05-20T05:23:59.271Z,27.90
2019-05-20T05:26:59.082Z,27.77
2019-05-20T05:30:05.125Z,28.90
2019-05-20T05:33:09.443Z,28.37
2019-05-20T05:36:15.618Z,26.80
2019-05-20T05:39:20.017Z,26.97
2019-05-20T05:42:25.440Z,27.53
2019-05-20T05:45:31.569Z,30.33
2019-05-20T05:48:35.892Z,28.40
2019-05-20T05:51:40.702Z,28.10
2019-05-20T05:54:45.242Z,26.80
2019-05-20T05:57:49.802Z,26.63
2019-05-20T06:00:57.065Z,25.70
2019-05-20T06:04:01.351Z,26.23
2019-05-20T06:07:05.725Z,26.23
2019-05-20T06:10:10.383Z,26.10
2019-05-20T06:13:14.698Z,26.27
2019-05-20T06:16:35.277Z,27.50
2019-05-20T06:19:25.099Z,27.53
2019-05-20T06:22:29.622Z,28.90
2019-05-20T06:25:34.042Z,28.43
2019-05-20T06:28:38.323Z,24.70
2019-05-20T06:31:42.655Z,26.03
2019-05-20T06:34:47.057Z,24.10
2019-05-20T06:37:55.402Z,25.20
2019-05-20T06:40:59.701Z,24.37
2019-05-20T06:44:05.238Z,24.07
2019-05-20T06:47:11.169Z,23.43
2019-05-20T06:50:16.034Z,23.20
2019-05-20T06:53:20.641Z,23.47
2019-05-20T06:56:25.088Z,23.30
2019-05-20T06:59:29.439Z,23.80
2019-05-20T07:02:33.734Z,23.27
2019-05-20T07:05:38.392Z,25.10
2019-05-20T07:08:44.128Z,26.23
2019-05-20T07:11:52.702Z,25.90
2019-05-20T07:14:54.499Z,26.30
2019-05-20T07:17:58.826Z,26.77
2019-05-20T07:21:03.223Z,25.60
2019-05-20T07:24:07.624Z,24.83
2019-05-20T07:27:12.708Z,24.30
2019-05-20T07:30:18.728Z,22.80
2019-05-20T07:33:24.080Z,21.50
2019-05-20T07:36:28.587Z,21.77
2019-05-20T07:39:33.076Z,21.47
2019-05-20T07:42:37.431Z,21.97
2019-05-20T07:45:42.340Z,20.07
2019-05-20T07:48:47.468Z,20.17
2019-05-20T07:51:52.453Z,18.73
2019-05-20T07:54:58.588Z,18.03
2019-05-20T07:58:07.458Z,17.67
2019-05-20T08:01:12.095Z,16.70
2019-05-20T08:04:16.581Z,16.67
2019-05-20T08:07:29.813Z,15.40
2019-05-20T08:10:26.939Z,15.37
2019-05-20T08:13:31.386Z,14.90
2019-05-20T08:16:35.819Z,13.57
2019-05-20T08:19:40.119Z,13.03
2019-05-20T08:22:44.610Z,13.07
2019-05-20T08:25:49.257Z,13.03
2019-05-20T08:28:53.811Z,13.30
2019-05-20T08:31:59.979Z,13.17
2019-05-20T08:35:04.520Z,12.47
2019-05-20T08:38:10.953Z,11.37
2019-05-20T08:41:15.465Z,12.10
2019-05-20T08:44:19.755Z,11.77
2019-05-20T08:47:24.032Z,12.53
2019-05-20T08:50:28.351Z,11.73
2019-05-20T08:53:34.134Z,11.93
2019-05-20T08:56:38.443Z,12.47
2019-05-20T08:59:43.961Z,12.37
2019-05-20T09:02:48.358Z,12.40
2019-05-20T09:05:52.823Z,13.37
2019-05-20T09:08:57.130Z,13.27
2019-05-20T09:12:01.447Z,13.53
2019-05-20T09:15:06.340Z,13.43
2019-05-20T09:18:10.659Z,13.70
2019-05-20T09:21:15.272Z,14.67
2019-05-20T09:24:19.912Z,14.73
2019-05-20T09:27:24.252Z,15.93
2019-05-20T09:30:28.872Z,15.73
2019-05-20T09:33:33.277Z,15.63
2019-05-20T09:36:38.683Z,16.07
2019-05-20T09:39:42.976Z,14.60
2019-05-20T09:42:47.315Z,15.30
2019-05-20T09:46:06.591Z,15.73
2019-05-20T09:48:58.235Z,17.37
2019-05-20T09:52:02.548Z,18.47
2019-05-20T09:55:07.114Z,18.47
2019-05-20T09:58:11.658Z,18.13
2019-05-20T10:01:15.956Z,19.27
2019-05-20T10:04:20.317Z,19.40
2019-05-20T10:07:24.740Z,16.97
2019-05-20T10:10:29.120Z,16.97
2019-05-20T10:13:33.663Z,16.67
2019-05-20T10:16:37.980Z,17.60
2019-05-20T10:19:42.482Z,17.40
2019-05-20T10:22:46.794Z,18.43
2019-05-20T10:25:51.216Z,18.83
2019-05-20T10:28:55.518Z,16.67
2019-05-20T10:31:59.820Z,17.00
2019-05-20T10:35:05.539Z,16.90
2019-05-20T10:38:09.877Z,16.07
2019-05-20T10:41:14.305Z,17.13
2019-05-20T10:44:18.894Z,16.50
2019-05-20T10:47:23.202Z,17.83
2019-05-20T10:50:27.517Z,17.70
2019-05-20T10:53:31.839Z,19.53
2019-05-20T10:56:38.052Z,18.80
2019-05-20T10:59:42.336Z,17.43
2019-05-20T11:02:46.725Z,19.23
2019-05-20T11:05:54.118Z,18.30
2019-05-20T11:09:13.054Z,17.60
2019-05-20T11:12:07.118Z,16.27
2019-05-20T11:15:12.901Z,14.50
2019-05-20T11:18:17.190Z,14.57
2019-05-20T11:21:21.570Z,14.30
2019-05-20T11:24:25.901Z,15.23
2019-05-20T11:27:30.287Z,14.60
2019-05-20T11:30:34.576Z,15.03
2019-05-20T11:33:38.854Z,13.87
2019-05-20T11:36:43.197Z,14.10
2019-05-20T11:39:48.801Z,14.93
2019-05-20T11:42:54.319Z,14.13
2019-05-20T11:45:58.719Z,13.60
2019-05-20T11:49:03.053Z,13.40
2019-05-20T11:52:07.350Z,12.50
2019-05-20T11:55:12.136Z,13.93
2019-05-20T11:58:16.861Z,12.90
2019-05-20T12:01:21.454Z,13.53
2019-05-20T12:04:25.827Z,13.10
2019-05-20T12:07:30.093Z,14.20
2019-05-20T12:10:34.366Z,13.47
2019-05-20T12:13:38.664Z,12.77
2019-05-20T12:16:42.971Z,11.30
2019-05-20T12:19:47.238Z,12.87
2019-05-20T12:22:51.550Z,11.73
2019-05-20T12:25:55.945Z,11.50
2019-05-20T12:29:00.308Z,11.20
2019-05-20T12:32:04.686Z,10.33
2019-05-20T12:35:09.359Z,11.30
2019-05-20T12:38:13.850Z,11.30
2019-05-20T12:41:18.160Z,10.27
2019-05-20T12:44:22.496Z,10.00
2019-05-20T12:47:26.882Z,10.57
2019-05-20T12:50:31.180Z,9.83
2019-05-20T12:53:35.528Z,12.40
2019-05-20T12:56:39.849Z,11.70
2019-05-20T12:59:44.125Z,11.30
2019-05-20T13:02:48.505Z,11.03
2019-05-20T13:05:52.785Z,10.70
2019-05-20T13:08:57.123Z,10.53
2019-05-20T13:12:02.340Z,9.77
2019-05-20T13:15:06.790Z,18.33
2019-05-20T13:18:11.127Z,9.17
2019-05-20T13:21:15.399Z,9.23
2019-05-20T13:24:19.726Z,9.00
2019-05-20T13:27:24.014Z,8.53
2019-05-20T13:30:28.489Z,8.93
2019-05-20T13:33:32.779Z,8.73
2019-05-20T13:36:37.044Z,7.63
2019-05-20T13:39:41.319Z,7.20
2019-05-20T13:42:45.585Z,7.13
2019-05-20T13:45:49.904Z,7.20
2019-05-20T13:48:55.293Z,7.37
2019-05-20T13:51:59.599Z,6.67
2019-05-20T13:55:03.913Z,7.03
2019-05-20T13:58:08.215Z,6.40
2019-05-20T14:01:12.510Z,6.67
2019-05-20T14:04:16.781Z,6.60
2019-05-20T14:07:21.083Z,6.67
2019-05-20T14:10:25.354Z,7.00
2019-05-20T14:13:29.664Z,5.47
2019-05-20T14:16:33.953Z,5.40
2019-05-20T14:19:38.232Z,5.47
2019-05-20T14:22:42.604Z,5.27
2019-05-20T14:25:47.121Z,5.20
2019-05-20T14:28:51.423Z,5.20
2019-05-20T14:31:55.777Z,4.90
2019-05-20T14:35:00.027Z,4.57
2019-05-20T14:38:04.295Z,5.10
2019-05-20T14:41:21.159Z,5.13
2019-05-20T14:44:14.584Z,5.03
2019-05-20T14:47:18.905Z,4.90
2019-05-20T14:50:23.197Z,4.50
2019-05-20T14:53:27.500Z,4.57
2019-05-20T14:56:31.858Z,4.27
2019-05-20T14:59:36.163Z,4.00
2019-05-20T15:02:40.438Z,4.20
2019-05-20T15:05:44.770Z,4.23
2019-05-20T15:08:49.116Z,4.13
2019-05-20T15:11:53.365Z,3.90
2019-05-20T15:14:57.664Z,3.80
2019-05-20T15:18:02.024Z,3.40
2019-05-20T15:21:06.269Z,3.53
2019-05-20T15:24:10.619Z,3.47
2019-05-20T15:27:16.155Z,3.53
2019-05-20T15:30:21.136Z,3.30
2019-05-20T15:33:25.459Z,3.00
2019-05-20T15:36:29.940Z,2.90
2019-05-20T15:39:34.343Z,2.90
2019-05-20T15:42:38.628Z,2.90
2019-05-20T15:45:42.934Z,2.80
2019-05-20T15:48:47.212Z,2.83
2019-05-20T15:51:51.509Z,3.10
2019-05-20T15:54:55.808Z,2.80
2019-05-20T15:58:00.140Z,2.60
2019-05-20T16:01:04.502Z,2.87
2019-05-20T16:04:10.041Z,3.00
2019-05-20T16:07:16.172Z,2.83
2019-05-20T16:10:21.470Z,2.93
2019-05-20T16:13:25.793Z,3.23
2019-05-20T16:16:30.119Z,3.03
2019-05-20T16:19:34.433Z,2.70
2019-05-20T16:22:38.763Z,3.20
2019-05-20T16:25:43.065Z,2.70
2019-05-20T16:28:47.525Z,3.00
2019-05-20T16:31:52.040Z,2.80
2019-05-20T16:34:56.339Z,3.10
2019-05-20T16:38:00.620Z,3.47
2019-05-20T16:41:04.940Z,3.37
2019-05-20T16:44:09.220Z,3.20
2019-05-20T16:47:13.622Z,3.30
2019-05-20T16:50:18.882Z,2.97
2019-05-20T16:53:23.447Z,3.40
2019-05-20T16:56:28.010Z,3.23
2019-05-20T16:59:32.360Z,3.47
2019-05-20T17:02:36.663Z,3.30
2019-05-20T17:05:40.960Z,3.17
2019-05-20T17:08:45.275Z,3.20
2019-05-20T17:11:49.575Z,3.50
2019-05-20T17:14:53.919Z,3.47
2019-05-20T17:17:58.248Z,3.77
2019-05-20T17:21:02.727Z,4.80
2019-05-20T17:24:07.020Z,3.53
2019-05-20T17:27:11.299Z,3.40
2019-05-20T17:30:18.075Z,3.77
2019-05-20T17:33:22.490Z,3.13
2019-05-20T17:36:26.772Z,2.93
2019-05-20T17:39:31.149Z,3.53
2019-05-20T17:42:35.416Z,3.50
2019-05-20T17:45:41.355Z,3.50
2019-05-20T17:48:45.658Z,2.93
2019-05-20T17:51:49.955Z,3.33
2019-05-20T17:54:54.260Z,3.50
2019-05-20T17:57:58.667Z,3.43
2019-05-20T18:01:14.920Z,3.70
2019-05-20T18:04:11.836Z,4.13
2019-05-20T18:07:18.576Z,3.40
2019-05-20T18:10:25.205Z,3.50
2019-05-20T18:13:29.539Z,3.97
2019-05-20T18:16:33.866Z,3.90
2019-05-20T18:19:38.167Z,3.87
2019-05-20T18:22:44.164Z,4.27
2019-05-20T18:25:48.458Z,4.13
2019-05-20T18:28:52.778Z,3.90
2019-05-20T18:31:57.263Z,3.83
2019-05-20T18:35:03.488Z,4.67
2019-05-20T18:38:07.790Z,4.03
2019-05-20T18:41:12.073Z,4.53
2019-05-20T18:44:16.398Z,4.40
2019-05-20T18:47:20.728Z,4.77
2019-05-20T18:50:25.019Z,4.33
2019-05-20T18:53:29.316Z,4.47
2019-05-20T18:56:34.906Z,4.63
2019-05-20T18:59:39.261Z,4.73
2019-05-20T19:02:45.328Z,4.67
2019-05-20T19:05:49.642Z,4.80
2019-05-20T19:08:54.161Z,4.77
2019-05-20T19:11:58.485Z,5.00
2019-05-20T19:15:03.030Z,5.07
2019-05-20T19:18:08.391Z,4.60
2019-05-20T19:21:12.705Z,5.10
2019-05-20T19:24:17.649Z,5.17
2019-05-20T19:27:22.418Z,5.07
2019-05-20T19:30:26.817Z,4.77
2019-05-20T19:33:31.213Z,5.07
2019-05-20T19:36:35.698Z,5.10
2019-05-20T19:39:39.989Z,5.47
2019-05-20T19:42:46.079Z,5.77
2019-05-20T19:45:52.215Z,5.93
2019-05-20T19:48:59.749Z,6.17
2019-05-20T19:52:04.127Z,5.83
2019-05-20T19:55:08.672Z,5.80
2019-05-20T19:58:14.842Z,7.00
2019-05-20T20:01:19.143Z,5.67
2019-05-20T20:04:23.463Z,6.37
2019-05-20T20:07:28.851Z,6.60
2019-05-20T20:10:33.221Z,7.13
2019-05-20T20:13:38.601Z,6.77
2019-05-20T20:16:42.891Z,6.60
2019-05-20T20:19:47.399Z,6.27
2019-05-20T20:22:51.703Z,7.37
2019-05-20T20:25:56.103Z,6.50
2019-05-20T20:29:00.395Z,6.77
2019-05-20T20:32:04.809Z,6.80
2019-05-20T20:35:09.526Z,7.53
2019-05-20T20:38:13.814Z,6.77
2019-05-20T20:41:18.211Z,6.93
2019-05-20T20:44:22.477Z,7.23
2019-05-20T20:47:40.860Z,6.97
2019-05-20T20:50:32.844Z,6.83
2019-05-20T20:53:37.234Z,7.70
2019-05-20T20:56:41.612Z,8.13
2019-05-20T20:59:50.244Z,7.77
2019-05-20T21:02:54.012Z,8.10
2019-05-20T21:05:59.478Z,8.20
2019-05-20T21:09:05.521Z,8.63
2019-05-20T21:12:09.829Z,8.17
2019-05-20T21:15:14.446Z,8.30
2019-05-20T21:18:19.595Z,8.70
2019-05-20T21:21:23.925Z,8.90
2019-05-20T21:24:28.243Z,8.97
2019-05-20T21:27:32.578Z,8.90
2019-05-20T21:30:36.843Z,8.80
2019-05-20T21:33:41.206Z,9.70
2019-05-20T21:36:48.102Z,10.17
2019-05-20T21:39:55.819Z,8.53
2019-05-20T21:43:02.374Z,9.03
2019-05-20T21:46:09.228Z,10.07
2019-05-20T21:49:15.914Z,9.80
2019-05-20T21:52:20.796Z,10.43
2019-05-20T21:55:25.419Z,11.27
2019-05-20T21:58:30.034Z,11.40
2019-05-20T22:01:34.578Z,11.00
2019-05-20T22:04:39.116Z,11.10
2019-05-20T22:07:43.690Z,12.03
2019-05-20T22:10:48.198Z,11.47
2019-05-20T22:13:52.710Z,11.03
2019-05-20T22:16:58.903Z,11.70
2019-05-20T22:20:06.593Z,11.07
2019-05-20T22:23:25.053Z,12.00
2019-05-20T22:26:31.211Z,12.40
2019-05-20T22:29:36.237Z,12.43
2019-05-20T22:32:41.908Z,11.93
2019-05-20T22:35:51.222Z,12.17
2019-05-20T22:38:58.207Z,11.47
2019-05-20T22:42:05.232Z,11.53
2019-05-20T22:45:12.350Z,11.70
2019-05-20T22:48:17.341Z,11.13
2019-05-20T22:51:21.613Z,11.80
2019-05-20T22:54:26.248Z,11.83
2019-05-20T22:57:30.717Z,12.20
2019-05-20T23:00:35.122Z,12.30
2019-05-20T23:03:39.445Z,12.60
2019-05-20T23:06:45.178Z,13.17
2019-05-20T23:09:49.695Z,12.43
2019-05-20T23:12:53.984Z,12.60
2019-05-20T23:15:58.256Z,12.93
2019-05-20T23:19:02.547Z,12.87
2019-05-20T23:22:06.833Z,12.03
2019-05-20T23:25:12.583Z,12.93
2019-05-20T23:28:18.046Z,12.00
2019-05-20T23:31:22.360Z,12.37
2019-05-20T23:34:27.491Z,12.47
2019-05-20T23:37:33.641Z,12.00
2019-05-20T23:40:37.911Z,10.90
2019-05-20T23:43:42.187Z,10.33
2019-05-20T23:46:46.475Z,9.13
2019-05-20T23:49:51.144Z,8.73
2019-05-20T23:52:57.780Z,7.97
2019-05-20T23:56:02.067Z,8.33
2019-05-20T23:59:06.331Z,8.30
